createdAt,value
2023-09-05T00:02:06.262Z,98893.34
2023-09-05T00:04:32.769Z,98890.91
2023-09-05T00:06:59.102Z,98897.47
2023-09-05T00:09:25.448Z,98893.16
2023-09-05T00:11:51.849Z,98897.09
2023-09-05T00:14:18.265Z,98895.91
2023-09-05T00:16:45.009Z,98895.53
2023-09-05T00:19:11.975Z,98893.09
2023-09-05T00:21:38.445Z,98896.59
2023-09-05T00:24:34.472Z,98895.19
2023-09-05T00:27:03.166Z,98892.94
2023-09-05T00:29:30.021Z,98888.84
2023-09-05T00:31:57.608Z,98891.75
2023-09-05T00:34:24.049Z,98890.94
2023-09-05T00:36:50.401Z,98885.97
2023-09-05T00:39:16.776Z,98893.00
2023-09-05T00:41:43.094Z,98885.56
2023-09-05T00:44:09.421Z,98886.16
2023-09-05T00:46:36.097Z,98884.53
2023-09-05T00:49:02.800Z,98887.03
2023-09-05T00:51:30.890Z,98885.38
2023-09-05T00:53:57.322Z,98885.59
2023-09-05T00:56:23.660Z,98882.34
2023-09-05T00:58:50.059Z,98882.78
2023-09-05T01:01:16.770Z,98882.19
2023-09-05T01:03:43.163Z,98879.34
2023-09-05T01:06:19.765Z,98887.03
2023-09-05T01:09:02.981Z,98884.75
2023-09-05T01:11:29.918Z,98879.63
2023-09-05T01:13:56.250Z,98887.88
2023-09-05T01:16:22.637Z,98883.56
2023-09-05T01:18:49.078Z,98894.28
2023-09-05T01:21:29.338Z,98886.25
2023-09-05T01:24:18.305Z,98896.38
2023-09-05T01:26:45.090Z,98892.66
2023-09-05T01:29:12.617Z,98895.34
2023-09-05T01:31:39.858Z,98902.56
2023-09-05T01:34:06.441Z,98905.25
2023-09-05T01:36:32.777Z,98897.19
2023-09-05T01:38:59.383Z,98896.38
2023-09-05T01:41:25.803Z,98905.47
2023-09-05T01:43:52.125Z,98911.06
2023-09-05T01:46:18.477Z,98916.84
2023-09-05T01:48:45.002Z,98920.19
2023-09-05T01:51:11.341Z,98914.69
2023-09-05T01:53:37.763Z,98916.13
2023-09-05T01:56:04.254Z,98916.78
2023-09-05T01:58:30.582Z,98922.59
2023-09-05T02:01:02.413Z,98919.75
2023-09-05T02:03:28.988Z,98907.63
2023-09-05T02:05:55.724Z,98904.56
2023-09-05T02:08:22.126Z,98908.06
2023-09-05T02:10:48.456Z,98910.97
2023-09-05T02:13:14.831Z,98908.72
2023-09-05T02:15:44.246Z,98911.19
2023-09-05T02:18:10.711Z,98908.50
2023-09-05T02:20:40.376Z,98904.56
2023-09-05T02:23:07.395Z,98906.22
2023-09-05T02:25:34.255Z,98917.75
2023-09-05T02:28:00.969Z,98916.13
2023-09-05T02:30:27.636Z,98917.16
2023-09-05T02:32:54.849Z,98913.66
2023-09-05T02:35:25.436Z,98910.38
2023-09-05T02:37:53.332Z,98912.22
2023-09-05T02:40:20.191Z,98911.03
2023-09-05T02:42:46.826Z,98906.31
2023-09-05T02:45:14.119Z,98909.22
2023-09-05T02:47:41.408Z,98899.75
2023-09-05T02:50:08.528Z,98903.47
2023-09-05T02:52:47.025Z,98898.53
2023-09-05T02:55:14.407Z,98898.97
2023-09-05T02:57:40.755Z,98901.03
2023-09-05T03:00:07.811Z,98901.22
2023-09-05T03:02:34.227Z,98901.66
2023-09-05T03:05:00.661Z,98901.88
2023-09-05T03:07:27.016Z,98903.13
2023-09-05T03:09:53.641Z,98903.34
2023-09-05T03:12:19.978Z,98904.38
2023-09-05T03:14:46.619Z,98904.16
2023-09-05T03:17:12.971Z,98908.47
2023-09-05T03:19:40.328Z,98906.63
2023-09-05T03:22:07.164Z,98893.66
2023-09-05T03:24:34.699Z,98901.91
2023-09-05T03:27:01.393Z,98901.91
2023-09-05T03:29:27.716Z,98907.28
2023-09-05T03:31:54.444Z,98905.84
2023-09-05T03:34:20.995Z,98906.25
2023-09-05T03:36:47.369Z,98919.84
2023-09-05T03:39:13.781Z,98908.53
2023-09-05T03:41:40.236Z,98913.72
2023-09-05T03:44:06.742Z,98908.81
2023-09-05T03:46:33.184Z,98906.34
2023-09-05T03:48:59.615Z,98906.56
2023-09-05T03:51:26.010Z,98903.06
2023-09-05T03:53:52.422Z,98910.47
2023-09-05T03:56:18.753Z,98904.31
2023-09-05T03:58:45.083Z,98899.78
2023-09-05T04:01:16.037Z,98899.78
2023-09-05T04:03:42.677Z,98891.75
2023-09-05T04:06:09.218Z,98896.88
2023-09-05T04:08:35.563Z,98893.16
2023-09-05T04:11:02.341Z,98889.44
2023-09-05T04:13:29.073Z,98892.13
2023-09-05T04:15:56.013Z,98888.63
2023-09-05T04:18:22.395Z,98900.16
2023-09-05T04:20:56.853Z,98899.94
2023-09-05T04:23:23.184Z,98899.72
2023-09-05T04:25:56.598Z,98898.91
2023-09-05T04:28:22.967Z,98901.19
2023-09-05T04:30:49.362Z,98902.63
2023-09-05T04:33:15.760Z,98900.75
2023-09-05T04:35:42.124Z,98902.19
2023-09-05T04:38:08.514Z,98902.81
2023-09-05T04:40:34.853Z,98904.81
2023-09-05T04:43:01.285Z,98906.06
2023-09-05T04:45:27.721Z,98905.63
2023-09-05T04:47:54.083Z,98909.75
2023-09-05T04:50:20.611Z,98908.47
2023-09-05T04:52:47.035Z,98909.31
2023-09-05T04:55:13.405Z,98909.53
2023-09-05T04:57:39.733Z,98907.66
2023-09-05T05:00:06.888Z,98909.91
2023-09-05T05:02:33.297Z,98914.22
2023-09-05T05:04:59.631Z,98911.13
2023-09-05T05:07:25.941Z,98905.34
2023-09-05T05:09:52.647Z,98902.03
2023-09-05T05:12:18.999Z,98914.56
2023-09-05T05:14:45.353Z,98904.47
2023-09-05T05:17:11.844Z,98906.72
2023-09-05T05:19:38.184Z,98908.13
2023-09-05T05:22:04.699Z,98901.50
2023-09-05T05:24:31.255Z,98915.28
2023-09-05T05:26:57.735Z,98907.22
2023-09-05T05:29:25.161Z,98916.03
2023-09-05T05:31:51.482Z,98910.84
2023-09-05T05:34:17.865Z,98910.53
2023-09-05T05:36:44.346Z,98914.84
2023-09-05T05:39:10.687Z,98909.41
2023-09-05T05:41:37.079Z,98906.44
2023-09-05T05:44:53.986Z,98904.09
2023-09-05T05:47:30.500Z,98910.81
2023-09-05T05:49:56.828Z,98898.31
2023-09-05T05:52:23.825Z,98907.25
2023-09-05T05:54:55.427Z,98900.97
2023-09-05T05:57:21.746Z,98899.16
2023-09-05T05:59:48.246Z,98895.50
2023-09-05T06:02:14.694Z,98899.84
2023-09-05T06:04:41.019Z,98900.75
2023-09-05T06:07:07.431Z,98900.78
2023-09-05T06:09:33.936Z,98892.53
2023-09-05T06:12:00.301Z,98894.81
2023-09-05T06:14:26.685Z,98894.81
2023-09-05T06:16:53.303Z,98893.59
2023-09-05T06:19:19.749Z,98893.13
2023-09-05T06:21:46.097Z,98894.22
2023-09-05T06:24:12.547Z,98887.75
2023-09-05T06:26:38.996Z,98885.91
2023-09-05T06:29:06.303Z,98892.06
2023-09-05T06:31:32.830Z,98889.84
2023-09-05T06:33:59.231Z,98890.63
2023-09-05T06:36:25.552Z,98884.41
2023-09-05T06:38:51.996Z,98890.03
2023-09-05T06:41:18.490Z,98883.81
2023-09-05T06:43:44.827Z,98881.53
2023-09-05T06:46:11.216Z,98885.47
2023-09-05T06:48:40.247Z,98880.28
2023-09-05T06:51:06.908Z,98885.94
2023-09-05T06:53:33.687Z,98887.44
2023-09-05T06:56:00.057Z,98883.84
2023-09-05T06:58:27.670Z,98891.06
2023-09-05T07:00:54.697Z,98891.22
2023-09-05T07:03:25.866Z,98889.31
2023-09-05T07:08:24.507Z,98885.84
2023-09-05T07:10:51.057Z,98882.75
2023-09-05T07:13:17.413Z,98880.16
2023-09-05T07:15:44.601Z,98875.75
2023-09-05T07:18:11.023Z,98876.06
2023-09-05T07:20:37.379Z,98874.81
2023-09-05T07:23:03.856Z,98879.19
2023-09-05T07:25:30.381Z,98877.72
2023-09-05T07:27:58.548Z,98880.56
2023-09-05T07:30:26.258Z,98876.28
2023-09-05T07:32:54.270Z,98871.22
2023-09-05T07:35:20.749Z,98860.50
2023-09-05T07:37:47.066Z,98859.53
2023-09-05T07:40:13.597Z,98859.41
2023-09-05T07:42:40.159Z,98863.25
2023-09-05T07:45:07.060Z,98855.22
2023-09-05T07:47:33.420Z,98859.91
2023-09-05T07:49:59.778Z,98863.28
2023-09-05T07:52:26.215Z,98867.69
2023-09-05T07:54:52.542Z,98868.31
2023-09-05T07:57:19.017Z,98872.75
2023-09-05T07:59:45.775Z,98870.38
2023-09-05T08:02:12.212Z,98875.28
2023-09-05T08:04:38.808Z,98876.47
2023-09-05T08:07:08.097Z,98873.25
2023-09-05T08:09:34.977Z,98875.72
2023-09-05T08:12:01.340Z,98874.19
2023-09-05T08:14:28.009Z,98873.41
2023-09-05T08:16:54.462Z,98874.28
2023-09-05T08:19:20.801Z,98884.09
2023-09-05T08:21:47.236Z,98878.16
2023-09-05T08:24:13.540Z,98875.72
2023-09-05T08:26:39.968Z,98879.84
2023-09-05T08:29:06.286Z,98874.44
2023-09-05T08:31:32.889Z,98869.28
2023-09-05T08:33:59.425Z,98869.31
2023-09-05T08:36:26.001Z,98874.50
2023-09-05T08:38:52.415Z,98866.66
2023-09-05T08:41:18.763Z,98871.81
2023-09-05T08:43:45.233Z,98875.63
2023-09-05T08:46:13.100Z,98873.50
2023-09-05T08:48:51.729Z,98871.06
2023-09-05T08:51:22.135Z,98865.69
2023-09-05T08:54:01.227Z,98870.03
2023-09-05T08:56:27.877Z,98862.16
2023-09-05T08:58:56.230Z,98859.97
2023-09-05T09:01:23.789Z,98861.09
2023-09-05T09:03:50.716Z,98868.94
2023-09-05T09:06:17.106Z,98857.28
2023-09-05T09:08:44.893Z,98853.47
2023-09-05T09:11:12.307Z,98853.19
2023-09-05T09:13:39.292Z,98846.94
2023-09-05T09:16:06.002Z,98853.47
2023-09-05T09:18:33.127Z,98855.06
2023-09-05T09:21:05.967Z,98849.91
2023-09-05T09:23:33.886Z,98855.59
2023-09-05T09:26:01.089Z,98851.00
2023-09-05T09:28:29.307Z,98856.72
2023-09-05T09:31:04.255Z,98855.06
2023-09-05T09:33:32.748Z,98855.28
2023-09-05T09:36:03.133Z,98853.66
2023-09-05T09:38:29.549Z,98849.84
2023-09-05T09:40:56.389Z,98850.09
2023-09-05T09:43:22.972Z,98838.09
2023-09-05T09:45:49.390Z,98835.34
2023-09-05T09:48:16.887Z,98836.91
2023-09-05T09:50:43.482Z,98833.91
2023-09-05T09:53:13.062Z,98830.38
2023-09-05T09:55:44.527Z,98823.78
2023-09-05T09:58:15.296Z,98825.94
2023-09-05T10:00:45.225Z,98821.59
2023-09-05T10:03:12.007Z,98815.31
2023-09-05T10:05:39.696Z,98818.78
2023-09-05T10:08:06.470Z,98818.47
2023-09-05T10:10:33.978Z,98811.06
2023-09-05T10:13:02.835Z,98812.97
2023-09-05T10:15:31.220Z,98812.59
2023-09-05T10:17:58.901Z,98807.91
2023-09-05T10:20:28.486Z,98803.56
2023-09-05T10:22:55.386Z,98804.88
2023-09-05T10:25:23.982Z,98814.34
2023-09-05T10:27:51.120Z,98806.69
2023-09-05T10:30:17.536Z,98804.16
2023-09-05T10:32:47.776Z,98803.53
2023-09-05T10:35:19.072Z,98800.47
2023-09-05T10:37:52.014Z,98796.88
2023-09-05T10:40:18.461Z,98798.75
2023-09-05T10:42:51.512Z,98795.16
2023-09-05T10:45:23.756Z,98794.91
2023-09-05T10:47:57.323Z,98793.22
2023-09-05T10:50:23.806Z,98786.31
2023-09-05T10:53:10.211Z,98787.03
2023-09-05T10:55:37.625Z,98782.25
2023-09-05T10:58:04.025Z,98780.50
2023-09-05T11:00:30.479Z,98779.53
2023-09-05T11:03:08.709Z,98769.34
2023-09-05T11:05:35.230Z,98776.59
2023-09-05T11:08:01.624Z,98771.59
2023-09-05T11:10:35.251Z,98766.03
2023-09-05T11:13:12.239Z,98761.91
2023-09-05T11:15:39.461Z,98756.75
2023-09-05T11:18:07.093Z,98752.31
2023-09-05T11:20:42.497Z,98751.38
2023-09-05T11:23:16.914Z,98750.47
2023-09-05T11:25:44.143Z,98757.13
2023-09-05T11:28:11.573Z,98750.22
2023-09-05T11:30:38.984Z,98743.84
2023-09-05T11:33:11.107Z,98748.16
2023-09-05T11:35:37.621Z,98747.84
2023-09-05T11:38:04.202Z,98741.06
2023-09-05T11:40:30.682Z,98742.38
2023-09-05T11:43:08.967Z,98745.31
2023-09-05T11:45:36.293Z,98732.06
2023-09-05T11:48:05.638Z,98737.22
2023-09-05T11:50:32.357Z,98742.38
2023-09-05T11:53:04.190Z,98734.19
2023-09-05T11:55:31.438Z,98729.97
2023-09-05T11:57:59.398Z,98730.97
2023-09-05T12:00:26.960Z,98720.94
2023-09-05T12:02:55.330Z,98727.34
2023-09-05T12:05:21.878Z,98722.03
2023-09-05T12:07:56.716Z,98723.13
2023-09-05T12:10:26.651Z,98712.06
2023-09-05T12:12:58.067Z,98707.34
2023-09-05T12:15:37.866Z,98707.75
2023-09-05T12:18:06.724Z,98701.38
2023-09-05T12:20:34.132Z,98695.41
2023-09-05T12:23:01.130Z,98688.84
2023-09-05T12:25:28.495Z,98688.44
2023-09-05T12:28:13.276Z,98688.06
2023-09-05T12:30:39.577Z,98686.63
2023-09-05T12:33:05.939Z,98679.16
2023-09-05T12:35:33.977Z,98678.84
2023-09-05T12:38:01.953Z,98676.34
2023-09-05T12:40:28.863Z,98669.56
2023-09-05T12:42:55.917Z,98666.59
2023-09-05T12:45:22.240Z,98676.31
2023-09-05T12:47:48.703Z,98672.88
2023-09-05T12:50:15.051Z,98674.09
2023-09-05T12:52:42.356Z,98672.97
2023-09-05T12:55:08.959Z,98668.31
2023-09-05T12:57:35.279Z,98662.72
2023-09-05T13:00:01.842Z,98662.59
2023-09-05T13:02:28.288Z,98666.66
2023-09-05T13:04:54.695Z,98666.34
2023-09-05T13:07:21.053Z,98670.00
2023-09-05T13:09:47.471Z,98657.75
2023-09-05T13:12:13.869Z,98662.13
2023-09-05T13:14:40.233Z,98656.66
2023-09-05T13:17:06.686Z,98658.91
2023-09-05T13:19:33.014Z,98648.78
2023-09-05T13:21:59.460Z,98656.66
2023-09-05T13:24:25.795Z,98662.13
2023-09-05T13:26:52.249Z,98653.94
2023-09-05T13:29:18.660Z,98655.34
2023-09-05T13:31:45.075Z,98652.44
2023-09-05T13:34:11.495Z,98647.47
2023-09-05T13:36:37.883Z,98649.28
2023-09-05T13:39:04.662Z,98650.47
2023-09-05T13:41:31.160Z,98652.38
2023-09-05T13:43:57.505Z,98647.78
2023-09-05T13:46:23.858Z,98645.88
2023-09-05T13:48:50.337Z,98642.03
2023-09-05T13:51:18.365Z,98635.47
2023-09-05T13:53:44.692Z,98634.25
2023-09-05T13:56:11.222Z,98631.88
2023-09-05T13:58:37.534Z,98632.69
2023-09-05T14:01:03.825Z,98634.75
2023-09-05T14:03:30.403Z,98629.06
2023-09-05T14:05:56.954Z,98625.81
2023-09-05T14:08:23.311Z,98622.59
2023-09-05T14:10:49.657Z,98627.13
2023-09-05T14:13:16.113Z,98623.78
2023-09-05T14:15:42.759Z,98620.75
2023-09-05T14:18:09.204Z,98617.00
2023-09-05T14:20:35.658Z,98615.91
2023-09-05T14:23:02.002Z,98624.38
2023-09-05T14:25:28.360Z,98613.44
2023-09-05T14:27:54.809Z,98619.72
2023-09-05T14:30:21.156Z,98612.63
2023-09-05T14:32:47.552Z,98614.38
2023-09-05T14:35:13.879Z,98618.41
2023-09-05T14:37:40.208Z,98609.41
2023-09-05T14:40:08.198Z,98597.97
2023-09-05T14:42:37.553Z,98598.28
2023-09-05T14:45:05.424Z,98603.84
2023-09-05T14:47:31.842Z,98605.06
2023-09-05T14:49:58.310Z,98598.06
2023-09-05T14:52:31.880Z,98596.44
2023-09-05T14:54:58.231Z,98603.03
2023-09-05T14:57:24.763Z,98601.41
2023-09-05T14:59:51.111Z,98601.41
2023-09-05T15:02:17.551Z,98594.63
2023-09-05T15:04:44.366Z,98587.25
2023-09-05T15:07:10.838Z,98584.50
2023-09-05T15:09:37.275Z,98587.84
2023-09-05T15:12:05.008Z,98585.44
2023-09-05T15:14:31.339Z,98589.28
2023-09-05T15:16:57.988Z,98574.94
2023-09-05T15:19:24.642Z,98574.75
2023-09-05T15:21:51.088Z,98587.19
2023-09-05T15:24:17.592Z,98588.31
2023-09-05T15:26:43.954Z,98583.66
2023-09-05T15:29:10.383Z,98578.38
2023-09-05T15:31:36.911Z,98582.72
2023-09-05T15:34:03.426Z,98579.81
2023-09-05T15:36:29.899Z,98570.66
2023-09-05T15:38:56.284Z,98569.66
2023-09-05T15:41:22.694Z,98573.34
2023-09-05T15:43:49.024Z,98582.22
2023-09-05T15:46:15.653Z,98582.53
2023-09-05T15:48:42.134Z,98585.69
2023-09-05T15:51:09.070Z,98585.88
2023-09-05T15:53:35.516Z,98575.19
2023-09-05T15:56:01.834Z,98576.81
2023-09-05T15:58:28.628Z,98580.97
2023-09-05T16:00:55.542Z,98580.34
2023-09-05T16:03:22.983Z,98574.56
2023-09-05T16:05:49.390Z,98579.03
2023-09-05T16:08:15.788Z,98581.28
2023-09-05T16:10:42.194Z,98583.38
2023-09-05T16:13:08.541Z,98580.16
2023-09-05T16:15:35.042Z,98583.28
2023-09-05T16:18:01.414Z,98596.75
2023-09-05T16:20:29.330Z,98591.38
2023-09-05T16:22:55.848Z,98586.22
2023-09-05T16:25:22.269Z,98589.75
2023-09-05T16:27:48.825Z,98589.56
2023-09-05T16:30:15.346Z,98582.38
2023-09-05T16:32:41.840Z,98589.94
2023-09-05T16:35:08.506Z,98585.09
2023-09-05T16:37:34.830Z,98591.69
2023-09-05T16:40:01.440Z,98584.59
2023-09-05T16:42:27.915Z,98586.13
2023-09-05T16:44:54.372Z,98581.38
2023-09-05T16:47:20.884Z,98586.72
2023-09-05T16:49:47.247Z,98584.81
2023-09-05T16:52:13.732Z,98580.25
2023-09-05T16:54:40.079Z,98583.09
2023-09-05T16:57:06.425Z,98587.31
2023-09-05T16:59:32.768Z,98584.09
2023-09-05T17:01:59.060Z,98592.59
2023-09-05T17:04:25.620Z,98582.47
2023-09-05T17:06:52.861Z,98590.16
2023-09-05T17:09:19.293Z,98587.53
2023-09-05T17:11:45.711Z,98584.13
2023-09-05T17:14:12.054Z,98583.31
2023-09-05T17:16:38.424Z,98586.34
2023-09-05T17:19:04.839Z,98586.41
2023-09-05T17:21:31.300Z,98592.38
2023-09-05T17:23:57.682Z,98597.75
2023-09-05T17:26:24.183Z,98605.63
2023-09-05T17:28:50.564Z,98608.09
2023-09-05T17:31:17.041Z,98604.50
2023-09-05T17:33:43.494Z,98599.09
2023-09-05T17:36:13.258Z,98604.28
2023-09-05T17:38:40.744Z,98603.97
2023-09-05T17:41:08.173Z,98605.28
2023-09-05T17:43:35.569Z,98608.28
2023-09-05T17:46:06.225Z,98599.53
2023-09-05T17:48:33.379Z,98600.78
2023-09-05T17:50:59.863Z,98604.47
2023-09-05T17:53:26.997Z,98603.84
2023-09-05T17:55:53.508Z,98609.44
2023-09-05T17:58:20.255Z,98611.50
2023-09-05T18:00:46.691Z,98615.69
2023-09-05T18:03:13.314Z,98611.41
2023-09-05T18:05:47.376Z,98617.50
2023-09-05T18:08:13.869Z,98621.66
2023-09-05T18:10:40.317Z,98623.13
2023-09-05T18:13:06.661Z,98620.22
2023-09-05T18:15:33.140Z,98621.69
2023-09-05T18:17:59.496Z,98620.34
2023-09-05T18:20:25.897Z,98628.03
2023-09-05T18:22:52.413Z,98617.19
2023-09-05T18:25:19.210Z,98623.47
2023-09-05T18:27:45.619Z,98624.59
2023-09-05T18:30:12.948Z,98628.16
2023-09-05T18:32:39.325Z,98625.47
2023-09-05T18:35:05.886Z,98621.94
2023-09-05T18:37:32.329Z,98624.41
2023-09-05T18:39:58.674Z,98630.38
2023-09-05T18:42:25.219Z,98626.31
2023-09-05T18:44:51.925Z,98631.22
2023-09-05T18:47:18.265Z,98629.56
2023-09-05T18:49:44.722Z,98630.13
2023-09-05T18:52:11.100Z,98635.81
2023-09-05T18:54:41.532Z,98625.25
2023-09-05T18:57:08.744Z,98628.22
2023-09-05T18:59:35.125Z,98624.97
2023-09-05T19:02:01.799Z,98624.13
2023-09-05T19:04:28.431Z,98624.09
2023-09-05T19:06:54.891Z,98636.84
2023-09-05T19:09:23.524Z,98629.78
2023-09-05T19:11:51.152Z,98639.81
2023-09-05T19:14:17.747Z,98636.78
2023-09-05T19:16:44.216Z,98636.50
2023-09-05T19:19:14.198Z,98635.69
2023-09-05T19:21:40.640Z,98638.88
2023-09-05T19:24:07.395Z,98636.16
2023-09-05T19:26:33.738Z,98636.16
2023-09-05T19:29:00.195Z,98641.81
2023-09-05T19:31:26.690Z,98639.91
2023-09-05T19:33:53.089Z,98636.06
2023-09-05T19:36:19.537Z,98636.06
2023-09-05T19:38:45.940Z,98630.59
2023-09-05T19:41:12.317Z,98621.09
2023-09-05T19:43:38.651Z,98626.19
2023-09-05T19:46:05.098Z,98631.56
2023-09-05T19:48:31.872Z,98628.28
2023-09-05T19:50:58.460Z,98622.28
2023-09-05T19:53:25.119Z,98626.56
2023-09-05T19:55:51.594Z,98628.72
2023-09-05T19:58:17.961Z,98632.47
2023-09-05T20:00:47.625Z,98634.28
2023-09-05T20:03:14.298Z,98632.38
2023-09-05T20:05:41.224Z,98632.34
2023-09-05T20:08:07.720Z,98634.19
2023-09-05T20:10:34.117Z,98642.28
2023-09-05T20:13:00.472Z,98633.53
2023-09-05T20:15:27.019Z,98634.81
2023-09-05T20:17:53.449Z,98628.81
2023-09-05T20:20:19.862Z,98627.09
2023-09-05T20:22:46.373Z,98637.06
2023-09-05T20:25:12.696Z,98638.91
2023-09-05T20:27:39.155Z,98634.22
2023-09-05T20:30:06.168Z,98637.13
2023-09-05T20:32:32.580Z,98637.59
2023-09-05T20:34:59.015Z,98636.16
2023-09-05T20:37:25.518Z,98635.25
2023-09-05T20:39:51.854Z,98637.59
2023-09-05T20:42:18.486Z,98634.84
2023-09-05T20:44:44.956Z,98636.09
2023-09-05T20:47:11.278Z,98633.56
2023-09-05T20:49:37.742Z,98635.91
2023-09-05T20:52:04.463Z,98636.09
2023-09-05T20:54:30.995Z,98636.25
2023-09-05T20:56:57.501Z,98639.13
2023-09-05T20:59:23.929Z,98638.25
2023-09-05T21:01:50.314Z,98635.25
2023-09-05T21:04:16.787Z,98643.00
2023-09-05T21:06:45.299Z,98645.13
2023-09-05T21:09:11.708Z,98649.38
2023-09-05T21:11:38.023Z,98646.63
2023-09-05T21:14:04.552Z,98647.88
2023-09-05T21:16:30.951Z,98658.81
2023-09-05T21:18:57.302Z,98661.09
2023-09-05T21:21:24.843Z,98661.28
2023-09-05T21:23:51.195Z,98668.13
2023-09-05T21:26:17.677Z,98665.34
2023-09-05T21:28:44.005Z,98669.25
2023-09-05T21:31:10.557Z,98672.91
2023-09-05T21:33:37.037Z,98675.50
2023-09-05T21:36:03.556Z,98672.47
2023-09-05T21:38:30.066Z,98669.69
2023-09-05T21:40:56.525Z,98670.75
2023-09-05T21:43:23.010Z,98677.22
2023-09-05T21:45:49.655Z,98672.56
2023-09-05T21:48:16.175Z,98673.97
2023-09-05T21:50:42.570Z,98669.00
2023-09-05T21:53:08.909Z,98661.06
2023-09-05T21:55:35.261Z,98658.25
2023-09-05T21:58:01.750Z,98661.69
2023-09-05T22:00:28.333Z,98663.72
2023-09-05T22:02:55.734Z,98671.09
2023-09-05T22:05:22.326Z,98668.91
2023-09-05T22:07:48.779Z,98666.41
2023-09-05T22:10:15.158Z,98672.28
2023-09-05T22:12:41.512Z,98661.19
2023-09-05T22:15:08.842Z,98665.16
2023-09-05T22:17:35.173Z,98665.06
2023-09-05T22:20:01.610Z,98664.25
2023-09-05T22:22:28.169Z,98668.00
2023-09-05T22:24:54.552Z,98669.06
2023-09-05T22:27:20.931Z,98673.03
2023-09-05T22:29:47.998Z,98670.22
2023-09-05T22:32:14.340Z,98671.72
2023-09-05T22:34:40.682Z,98669.75
2023-09-05T22:37:07.198Z,98671.03
2023-09-05T22:39:33.605Z,98676.31
2023-09-05T22:41:59.941Z,98667.91
2023-09-05T22:44:26.375Z,98671.28
2023-09-05T22:46:52.711Z,98675.50
2023-09-05T22:49:19.143Z,98668.72
2023-09-05T22:51:45.498Z,98674.56
2023-09-05T22:54:12.236Z,98677.16
2023-09-05T22:56:38.729Z,98675.16
2023-09-05T22:59:05.438Z,98683.09
2023-09-05T23:01:31.794Z,98671.88
2023-09-05T23:03:58.356Z,98668.50
2023-09-05T23:06:24.873Z,98677.47
2023-09-05T23:08:51.240Z,98674.44
2023-09-05T23:11:17.710Z,98671.41
2023-09-05T23:13:44.052Z,98670.00
2023-09-05T23:16:10.461Z,98676.88
2023-09-05T23:18:37.004Z,98678.63
2023-09-05T23:21:03.670Z,98676.03
2023-09-05T23:23:30.000Z,98671.38
2023-09-05T23:25:56.475Z,98677.19
2023-09-05T23:28:22.816Z,98675.78
2023-09-05T23:30:49.312Z,98674.63
2023-09-05T23:33:15.648Z,98674.84
2023-09-05T23:35:42.000Z,98682.91
2023-09-05T23:38:09.939Z,98690.38
2023-09-05T23:40:36.947Z,98681.09
2023-09-05T23:43:04.465Z,98686.91
2023-09-05T23:45:31.924Z,98689.47
2023-09-05T23:47:58.408Z,98692.03
2023-09-05T23:50:24.716Z,98682.56
2023-09-05T23:52:51.031Z,98683.03
2023-09-05T23:55:17.604Z,98683.47
2023-09-05T23:57:43.953Z,98680.66
